Time,TemperatureF,DewpointF,PressureIn,WindDirection,WindDirectionDegrees,WindSpeedMPH,WindSpeedGustMPH,Humidity,HourlyPrecipIn,Conditions,Clouds,dailyrainin,SoftwareType,DateUTC
2013-01-13 00:00:00,4.0,-99.9,-100.00,WNW,298,8.0,9.0,-999,-99.99,,,-99.99,,2013-01-13 07:00:00,
2013-01-13 00:53:00,4.0,-99.9,-100.00,WNW,298,8.0,9.0,-999,-99.99,,,-99.99,,2013-01-13 07:53:00,
2013-01-13 01:00:00,2.0,-99.9,-100.00,WNW,289,7.0,8.0,-999,-99.99,,,-99.99,,2013-01-13 08:00:00,
2013-01-13 01:53:00,2.0,-99.9,-100.00,WNW,289,7.0,8.0,-999,-99.99,,,-99.99,,2013-01-13 08:53:00,
2013-01-13 02:00:00,2.0,-99.9,-100.00,West,280,5.0,5.0,-999,-99.99,,,-99.99,,2013-01-13 09:00:00,
2013-01-13 02:53:00,2.0,-99.9,-100.00,West,280,5.0,5.0,-999,-99.99,,,-99.99,,2013-01-13 09:53:00,
2013-01-13 03:00:00,2.0,-99.9,-100.00,WNW,282,9.0,11.0,-999,-99.99,,,-99.99,,2013-01-13 10:00:00,
2013-01-13 03:53:00,2.0,-99.9,-100.00,WNW,282,9.0,11.0,-999,-99.99,,,-99.99,,2013-01-13 10:53:00,
2013-01-13 05:00:00,2.0,-99.9,-100.00,West,270,7.0,8.0,-999,-99.99,,,-99.99,,2013-01-13 12:00:00,
2013-01-13 05:53:00,2.0,-99.9,-100.00,West,270,7.0,8.0,-999,-99.99,,,-99.99,,2013-01-13 12:53:00,
2013-01-13 06:00:00,4.0,-99.9,-100.00,West,279,7.0,7.0,-999,-99.99,,,-99.99,,2013-01-13 13:00:00,
2013-01-13 06:53:00,4.0,-99.9,-100.00,West,279,7.0,7.0,-999,-99.99,,,-99.99,,2013-01-13 13:53:00,
2013-01-13 07:00:00,5.0,-99.9,-100.00,West,271,5.0,8.0,-999,-99.99,,,-99.99,,2013-01-13 14:00:00,
2013-01-13 07:53:00,5.0,-99.9,-100.00,West,271,5.0,8.0,-999,-99.99,,,-99.99,,2013-01-13 14:53:00,
2013-01-13 08:00:00,4.0,-99.9,-100.00,WNW,289,6.0,7.0,-999,-99.99,,,-99.99,,2013-01-13 15:00:00,
2013-01-13 08:53:00,4.0,-99.9,-100.00,WNW,289,6.0,7.0,-999,-99.99,,,-99.99,,2013-01-13 15:53:00,
2013-01-13 09:00:00,9.0,-99.9,-100.00,NW,310,6.0,7.0,-999,-99.99,,,-99.99,,2013-01-13 16:00:00,
2013-01-13 09:53:00,9.0,-99.9,-100.00,NW,310,6.0,7.0,-999,-99.99,,,-99.99,,2013-01-13 16:53:00,
2013-01-13 10:00:00,14.0,-99.9,-100.00,NNW,335,11.0,15.0,-999,-99.99,,,-99.99,,2013-01-13 17:00:00,
2013-01-13 10:53:00,14.0,-99.9,-100.00,NNW,335,11.0,15.0,-999,-99.99,,,-99.99,,2013-01-13 17:53:00,
2013-01-13 11:00:00,18.0,-99.9,-100.00,NW,314,8.0,13.0,-999,-99.99,,,-99.99,,2013-01-13 18:00:00,
2013-01-13 11:54:00,18.0,-99.9,-100.00,NW,314,8.0,13.0,-999,-99.99,,,-99.99,,2013-01-13 18:54:00,
2013-01-13 12:00:00,20.0,-99.9,-100.00,NNW,340,11.0,15.0,-999,-99.99,,,-99.99,,2013-01-13 19:00:00,
2013-01-13 12:53:00,20.0,-99.9,-100.00,NNW,340,11.0,15.0,-999,-99.99,,,-99.99,,2013-01-13 19:53:00,
2013-01-13 13:00:00,20.0,-99.9,-100.00,North,349,8.0,11.0,-999,-99.99,,,-99.99,,2013-01-13 20:00:00,
2013-01-13 13:53:00,20.0,-99.9,-100.00,North,349,8.0,11.0,-999,-99.99,,,-99.99,,2013-01-13 20:53:00,
2013-01-13 14:00:00,22.0,-99.9,-100.00,North,353,6.0,9.0,-999,-99.99,,,-99.99,,2013-01-13 21:00:00,
2013-01-13 14:53:00,22.0,-99.9,-100.00,North,353,6.0,9.0,-999,-99.99,,,-99.99,,2013-01-13 21:53:00,
2013-01-13 15:00:00,22.0,-99.9,-100.00,NW,311,7.0,11.0,-999,-99.99,,,-99.99,,2013-01-13 22:00:00,
2013-01-13 15:53:00,22.0,-99.9,-100.00,NW,311,7.0,11.0,-999,-99.99,,,-99.99,,2013-01-13 22:53:00,
2013-01-13 16:00:00,22.0,-99.9,-100.00,NNW,335,7.0,9.0,-999,-99.99,,,-99.99,,2013-01-13 23:00:00,
2013-01-13 16:53:00,22.0,-99.9,-100.00,NNW,335,7.0,9.0,-999,-99.99,,,-99.99,,2013-01-13 23:53:00,
2013-01-13 17:00:00,16.0,-99.9,-100.00,NNW,348,5.0,7.0,-999,-99.99,,,-99.99,,2013-01-14 00:00:00,
2013-01-13 17:53:00,16.0,-99.9,-100.00,NNW,348,5.0,7.0,-999,-99.99,,,-99.99,,2013-01-14 00:53:00,
2013-01-13 18:00:00,13.0,-99.9,-100.00,NNW,333,12.0,12.0,-999,-99.99,,,-99.99,,2013-01-14 01:00:00,
2013-01-13 18:53:00,13.0,-99.9,-100.00,NNW,333,12.0,12.0,-999,-99.99,,,-99.99,,2013-01-14 01:53:00,
2013-01-13 19:00:00,13.0,-99.9,-100.00,NNW,335,10.0,11.0,-999,-99.99,,,-99.99,,2013-01-14 02:00:00,
2013-01-13 19:53:00,13.0,-99.9,-100.00,NNW,335,10.0,11.0,-999,-99.99,,,-99.99,,2013-01-14 02:53:00,
2013-01-13 20:00:00,11.0,-99.9,-100.00,NNW,328,0.0,3.0,-999,-99.99,,,-99.99,,2013-01-14 03:00:00,
2013-01-13 20:53:00,11.0,-99.9,-100.00,NNW,328,0.0,3.0,-999,-99.99,,,-99.99,,2013-01-14 03:53:00,
2013-01-13 21:00:00,9.0,-99.9,-100.00,WNW,300,6.0,8.0,-999,-99.99,,,-99.99,,2013-01-14 04:00:00,
2013-01-13 21:53:00,9.0,-99.9,-100.00,WNW,300,6.0,8.0,-999,-99.99,,,-99.99,,2013-01-14 04:53:00,
2013-01-13 22:00:00,7.0,-99.9,-100.00,West,279,1.0,8.0,-999,-99.99,,,-99.99,,2013-01-14 05:00:00,
2013-01-13 22:53:00,7.0,-99.9,-100.00,West,279,1.0,8.0,-999,-99.99,,,-99.99,,2013-01-14 05:53:00,
2013-01-13 23:00:00,5.0,-99.9,-100.00,NW,313,6.0,7.0,-999,-99.99,,,-99.99,,2013-01-14 06:00:00,
2013-01-13 23:53:00,5.0,-99.9,-100.00,NW,313,6.0,7.0,-999,-99.99,,,-99.99,,2013-01-14 06:53:00,